sensor_id;sensor_type;location;lat;lon;timestamp;temperature;humidity
6496;DHT22;3281;47.658;9.166;2023-02-11T00:00:59;-0.90;1.00
6496;DHT22;3281;47.658;9.166;2023-02-11T00:03:25;-0.80;1.00
6496;DHT22;3281;47.658;9.166;2023-02-11T00:05:57;-0.80;1.00
6496;DHT22;3281;47.658;9.166;2023-02-11T00:08:24;-0.80;1.00
6496;DHT22;3281;47.658;9.166;2023-02-11T00:10:53;-0.90;1.00
6496;DHT22;3281;47.658;9.166;2023-02-11T00:13:20;-1.00;1.00
6496;DHT22;3281;47.658;9.166;2023-02-11T00:15:47;-1.00;1.00
6496;DHT22;3281;47.658;9.166;2023-02-11T00:18:14;-0.90;1.00
6496;DHT22;3281;47.658;9.166;2023-02-11T00:20:41;-0.90;1.00
6496;DHT22;3281;47.658;9.166;2023-02-11T00:23:08;-0.90;1.00
6496;DHT22;3281;47.658;9.166;2023-02-11T00:25:38;-0.80;1.00
6496;DHT22;3281;47.658;9.166;2023-02-11T00:28:06;-0.90;1.00
6496;DHT22;3281;47.658;9.166;2023-02-11T00:30:33;-0.90;1.00
6496;DHT22;3281;47.658;9.166;2023-02-11T00:32:59;-0.90;1.00
6496;DHT22;3281;47.658;9.166;2023-02-11T00:35:26;-0.90;1.00
6496;DHT22;3281;47.658;9.166;2023-02-11T00:37:54;-0.90;1.00
6496;DHT22;3281;47.658;9.166;2023-02-11T00:40:21;-0.90;1.00
6496;DHT22;3281;47.658;9.166;2023-02-11T00:42:47;-0.90;1.00
6496;DHT22;3281;47.658;9.166;2023-02-11T00:45:15;-0.80;1.00
6496;DHT22;3281;47.658;9.166;2023-02-11T00:47:43;-0.90;1.00
6496;DHT22;3281;47.658;9.166;2023-02-11T00:50:09;-0.90;1.00
6496;DHT22;3281;47.658;9.166;2023-02-11T00:52:36;-0.80;1.00
6496;DHT22;3281;47.658;9.166;2023-02-11T00:55:03;-0.80;1.00
6496;DHT22;3281;47.658;9.166;2023-02-11T00:57:30;-0.80;1.00
6496;DHT22;3281;47.658;9.166;2023-02-11T00:59:57;-0.80;1.00
6496;DHT22;3281;47.658;9.166;2023-02-11T01:02:25;-0.70;1.00
6496;DHT22;3281;47.658;9.166;2023-02-11T01:04:51;-0.70;1.00
6496;DHT22;3281;47.658;9.166;2023-02-11T01:07:18;-0.60;1.00
6496;DHT22;3281;47.658;9.166;2023-02-11T01:09:45;-0.70;1.00
6496;DHT22;3281;47.658;9.166;2023-02-11T01:12:12;-0.90;1.00
6496;DHT22;3281;47.658;9.166;2023-02-11T01:14:38;-0.90;1.00
6496;DHT22;3281;47.658;9.166;2023-02-11T01:17:05;-1.00;1.00
6496;DHT22;3281;47.658;9.166;2023-02-11T01:19:33;-1.10;1.00
6496;DHT22;3281;47.658;9.166;2023-02-11T01:22:01;-1.10;1.00
6496;DHT22;3281;47.658;9.166;2023-02-11T01:24:28;-1.00;1.00
6496;DHT22;3281;47.658;9.166;2023-02-11T01:26:55;-1.00;1.00
6496;DHT22;3281;47.658;9.166;2023-02-11T01:29:22;-0.90;1.00
6496;DHT22;3281;47.658;9.166;2023-02-11T01:31:48;-1.00;1.00
6496;DHT22;3281;47.658;9.166;2023-02-11T01:34:15;-1.30;1.00
6496;DHT22;3281;47.658;9.166;2023-02-11T01:36:43;-1.60;1.00
6496;DHT22;3281;47.658;9.166;2023-02-11T01:39:10;-1.60;1.00
6496;DHT22;3281;47.658;9.166;2023-02-11T01:41:37;-1.60;1.00
6496;DHT22;3281;47.658;9.166;2023-02-11T01:44:24;-1.30;1.00
6496;DHT22;3281;47.658;9.166;2023-02-11T01:46:51;-1.30;1.00
6496;DHT22;3281;47.658;9.166;2023-02-11T01:49:21;-1.40;1.00
6496;DHT22;3281;47.658;9.166;2023-02-11T01:51:55;-1.30;1.00
6496;DHT22;3281;47.658;9.166;2023-02-11T01:54:26;-1.10;1.00
6496;DHT22;3281;47.658;9.166;2023-02-11T01:57:14;-1.10;1.00
6496;DHT22;3281;47.658;9.166;2023-02-11T01:59:56;-1.30;1.00
6496;DHT22;3281;47.658;9.166;2023-02-11T02:02:29;-1.40;1.00
6496;DHT22;3281;47.658;9.166;2023-02-11T02:05:02;-1.30;1.00
6496;DHT22;3281;47.658;9.166;2023-02-11T02:07:36;-1.40;1.00
6496;DHT22;3281;47.658;9.166;2023-02-11T02:10:08;-1.40;1.00
6496;DHT22;3281;47.658;9.166;2023-02-11T02:12:36;-1.30;1.00
6496;DHT22;3281;47.658;9.166;2023-02-11T02:15:18;-1.40;1.00
6496;DHT22;3281;47.658;9.166;2023-02-11T02:17:53;-1.50;1.00
6496;DHT22;3281;47.658;9.166;2023-02-11T02:29:24;-1.40;1.00
6496;DHT22;3281;47.658;9.166;2023-02-11T02:32:22;-1.40;1.00
6496;DHT22;3281;47.658;9.166;2023-02-11T02:34:58;-1.40;1.00
6496;DHT22;3281;47.658;9.166;2023-02-11T02:37:33;-1.40;1.00
6496;DHT22;3281;47.658;9.166;2023-02-11T02:40:04;-1.50;1.00
6496;DHT22;3281;47.658;9.166;2023-02-11T02:42:33;-1.50;1.00
6496;DHT22;3281;47.658;9.166;2023-02-11T02:45:00;-1.50;1.00
6496;DHT22;3281;47.658;9.166;2023-02-11T02:47:28;-1.30;1.00
6496;DHT22;3281;47.658;9.166;2023-02-11T02:49:55;-1.30;1.00
6496;DHT22;3281;47.658;9.166;2023-02-11T02:52:32;-1.50;1.00
6496;DHT22;3281;47.658;9.166;2023-02-11T02:55:12;-1.50;1.00
6496;DHT22;3281;47.658;9.166;2023-02-11T02:58:14;-1.50;1.00
6496;DHT22;3281;47.658;9.166;2023-02-11T03:00:53;-1.40;1.00
6496;DHT22;3281;47.658;9.166;2023-02-11T03:03:29;-1.20;1.00
6496;DHT22;3281;47.658;9.166;2023-02-11T03:06:02;-1.30;1.00
6496;DHT22;3281;47.658;9.166;2023-02-11T03:08:34;-1.40;1.00
6496;DHT22;3281;47.658;9.166;2023-02-11T03:11:03;-1.40;1.00
6496;DHT22;3281;47.658;9.166;2023-02-11T03:13:33;-1.40;1.00
6496;DHT22;3281;47.658;9.166;2023-02-11T03:16:05;-1.40;1.00
6496;DHT22;3281;47.658;9.166;2023-02-11T03:18:36;-1.40;1.00
6496;DHT22;3281;47.658;9.166;2023-02-11T03:21:04;-1.40;1.00
6496;DHT22;3281;47.658;9.166;2023-02-11T03:23:36;-1.50;1.00
6496;DHT22;3281;47.658;9.166;2023-02-11T03:26:09;-1.50;1.00
6496;DHT22;3281;47.658;9.166;2023-02-11T03:28:41;-1.50;1.00
6496;DHT22;3281;47.658;9.166;2023-02-11T03:31:13;-1.60;1.00
6496;DHT22;3281;47.658;9.166;2023-02-11T03:33:49;-1.60;1.00
6496;DHT22;3281;47.658;9.166;2023-02-11T03:36:20;-1.70;1.00
6496;DHT22;3281;47.658;9.166;2023-02-11T03:38:51;-1.70;1.00
6496;DHT22;3281;47.658;9.166;2023-02-11T03:41:20;-1.60;1.00
6496;DHT22;3281;47.658;9.166;2023-02-11T03:43:51;-1.50;1.00
6496;DHT22;3281;47.658;9.166;2023-02-11T03:46:21;-1.40;1.00
6496;DHT22;3281;47.658;9.166;2023-02-11T03:48:54;-1.40;1.00
6496;DHT22;3281;47.658;9.166;2023-02-11T03:51:23;-1.30;1.00
6496;DHT22;3281;47.658;9.166;2023-02-11T03:53:53;-1.40;1.00
6496;DHT22;3281;47.658;9.166;2023-02-11T03:56:24;-1.30;1.00
6496;DHT22;3281;47.658;9.166;2023-02-11T03:58:52;-1.40;1.00
6496;DHT22;3281;47.658;9.166;2023-02-11T04:01:19;-1.30;1.00
6496;DHT22;3281;47.658;9.166;2023-02-11T04:03:46;-1.40;1.00
6496;DHT22;3281;47.658;9.166;2023-02-11T04:06:14;-1.40;1.00
6496;DHT22;3281;47.658;9.166;2023-02-11T04:08:40;-1.30;1.00
6496;DHT22;3281;47.658;9.166;2023-02-11T04:11:07;-1.20;1.00
6496;DHT22;3281;47.658;9.166;2023-02-11T04:13:34;-1.40;1.00
6496;DHT22;3281;47.658;9.166;2023-02-11T04:16:01;-1.60;1.00
6496;DHT22;3281;47.658;9.166;2023-02-11T04:18:27;-1.60;1.00
6496;DHT22;3281;47.658;9.166;2023-02-11T04:20:54;-1.60;1.00
6496;DHT22;3281;47.658;9.166;2023-02-11T04:23:22;-1.60;1.00
6496;DHT22;3281;47.658;9.166;2023-02-11T04:25:49;-1.70;1.00
6496;DHT22;3281;47.658;9.166;2023-02-11T04:28:16;-1.70;1.00
6496;DHT22;3281;47.658;9.166;2023-02-11T04:30:42;-1.70;1.00
6496;DHT22;3281;47.658;9.166;2023-02-11T04:33:09;-1.90;1.00
6496;DHT22;3281;47.658;9.166;2023-02-11T04:35:36;-1.90;1.00
6496;DHT22;3281;47.658;9.166;2023-02-11T04:38:02;-1.80;1.00
6496;DHT22;3281;47.658;9.166;2023-02-11T04:40:30;-1.80;1.00
6496;DHT22;3281;47.658;9.166;2023-02-11T04:42:57;-1.80;1.00
6496;DHT22;3281;47.658;9.166;2023-02-11T04:45:24;-1.80;1.00
6496;DHT22;3281;47.658;9.166;2023-02-11T04:47:51;-1.70;1.00
6496;DHT22;3281;47.658;9.166;2023-02-11T04:50:18;-1.60;1.00
6496;DHT22;3281;47.658;9.166;2023-02-11T04:52:44;-1.60;1.00
6496;DHT22;3281;47.658;9.166;2023-02-11T04:55:11;-1.60;1.00
6496;DHT22;3281;47.658;9.166;2023-02-11T04:57:40;-1.60;1.00
6496;DHT22;3281;47.658;9.166;2023-02-11T05:00:08;-1.60;1.00
6496;DHT22;3281;47.658;9.166;2023-02-11T05:02:35;-1.50;1.00
6496;DHT22;3281;47.658;9.166;2023-02-11T05:05:01;-1.40;1.00
6496;DHT22;3281;47.658;9.166;2023-02-11T05:07:28;-1.50;1.00
6496;DHT22;3281;47.658;9.166;2023-02-11T05:09:55;-1.40;1.00
6496;DHT22;3281;47.658;9.166;2023-02-11T05:12:22;-1.30;1.00
6496;DHT22;3281;47.658;9.166;2023-02-11T05:14:50;-1.30;1.00
6496;DHT22;3281;47.658;9.166;2023-02-11T05:17:16;-1.30;1.00
6496;DHT22;3281;47.658;9.166;2023-02-11T05:19:43;-1.30;1.00
6496;DHT22;3281;47.658;9.166;2023-02-11T05:22:10;-1.30;1.00
6496;DHT22;3281;47.658;9.166;2023-02-11T05:24:36;-1.30;1.00
6496;DHT22;3281;47.658;9.166;2023-02-11T05:27:03;-1.30;1.00
6496;DHT22;3281;47.658;9.166;2023-02-11T05:29:30;-1.30;1.00
6496;DHT22;3281;47.658;9.166;2023-02-11T05:31:58;-1.40;1.00
6496;DHT22;3281;47.658;9.166;2023-02-11T05:34:25;-1.50;1.00
6496;DHT22;3281;47.658;9.166;2023-02-11T05:36:52;-1.60;1.00
6496;DHT22;3281;47.658;9.166;2023-02-11T05:39:19;-1.80;1.00
6496;DHT22;3281;47.658;9.166;2023-02-11T05:41:45;-1.70;1.00
6496;DHT22;3281;47.658;9.166;2023-02-11T05:44:12;-1.70;1.00
6496;DHT22;3281;47.658;9.166;2023-02-11T05:46:39;-1.70;1.00
6496;DHT22;3281;47.658;9.166;2023-02-11T05:49:07;-1.70;1.00
6496;DHT22;3281;47.658;9.166;2023-02-11T05:51:33;-1.70;1.00
6496;DHT22;3281;47.658;9.166;2023-02-11T05:54:00;-1.70;1.00
6496;DHT22;3281;47.658;9.166;2023-02-11T05:56:27;-1.70;1.00
6496;DHT22;3281;47.658;9.166;2023-02-11T05:58:53;-1.70;1.00
6496;DHT22;3281;47.658;9.166;2023-02-11T06:01:20;-1.60;1.00
6496;DHT22;3281;47.658;9.166;2023-02-11T06:03:47;-1.60;1.00
6496;DHT22;3281;47.658;9.166;2023-02-11T06:06:17;-1.60;1.00
6496;DHT22;3281;47.658;9.166;2023-02-11T06:08:43;-1.60;1.00
6496;DHT22;3281;47.658;9.166;2023-02-11T06:11:10;-1.50;1.00
6496;DHT22;3281;47.658;9.166;2023-02-11T06:13:37;-1.50;1.00
6496;DHT22;3281;47.658;9.166;2023-02-11T06:16:04;-1.60;1.00
6496;DHT22;3281;47.658;9.166;2023-02-11T06:18:30;-1.70;1.00
6496;DHT22;3281;47.658;9.166;2023-02-11T06:20:58;-1.70;1.00
6496;DHT22;3281;47.658;9.166;2023-02-11T06:23:26;-1.70;1.00
6496;DHT22;3281;47.658;9.166;2023-02-11T06:25:53;-1.60;1.00
6496;DHT22;3281;47.658;9.166;2023-02-11T06:28:19;-1.50;1.00
6496;DHT22;3281;47.658;9.166;2023-02-11T06:30:46;-1.50;1.00
6496;DHT22;3281;47.658;9.166;2023-02-11T06:33:13;-1.50;1.00
6496;DHT22;3281;47.658;9.166;2023-02-11T06:35:39;-1.40;1.00
6496;DHT22;3281;47.658;9.166;2023-02-11T06:38:06;-1.40;1.00
6496;DHT22;3281;47.658;9.166;2023-02-11T06:40:34;-1.50;1.00
6496;DHT22;3281;47.658;9.166;2023-02-11T06:43:01;-1.20;1.00
6496;DHT22;3281;47.658;9.166;2023-02-11T06:45:28;-1.00;1.00
6496;DHT22;3281;47.658;9.166;2023-02-11T06:47:54;-0.90;1.00
6496;DHT22;3281;47.658;9.166;2023-02-11T06:50:21;-0.90;1.00
6496;DHT22;3281;47.658;9.166;2023-02-11T06:52:48;-0.90;1.00
6496;DHT22;3281;47.658;9.166;2023-02-11T06:55:14;-0.90;1.00
6496;DHT22;3281;47.658;9.166;2023-02-11T06:57:42;-1.20;1.00
6496;DHT22;3281;47.658;9.166;2023-02-11T07:00:10;-1.50;1.00
6496;DHT22;3281;47.658;9.166;2023-02-11T07:02:37;-1.60;1.00
6496;DHT22;3281;47.658;9.166;2023-02-11T07:05:05;-1.60;1.00
6496;DHT22;3281;47.658;9.166;2023-02-11T07:07:32;-1.60;1.00
6496;DHT22;3281;47.658;9.166;2023-02-11T07:09:58;-1.70;1.00
6496;DHT22;3281;47.658;9.166;2023-02-11T07:12:27;-1.60;1.00
6496;DHT22;3281;47.658;9.166;2023-02-11T07:14:56;-1.80;1.00
6496;DHT22;3281;47.658;9.166;2023-02-11T07:17:23;-1.70;1.00
6496;DHT22;3281;47.658;9.166;2023-02-11T07:19:50;-1.60;1.00
6496;DHT22;3281;47.658;9.166;2023-02-11T07:22:16;-1.50;1.00
6496;DHT22;3281;47.658;9.166;2023-02-11T07:24:43;-1.40;1.00
6496;DHT22;3281;47.658;9.166;2023-02-11T07:27:10;-1.40;1.00
6496;DHT22;3281;47.658;9.166;2023-02-11T07:29:36;-1.10;1.00
6496;DHT22;3281;47.658;9.166;2023-02-11T07:32:05;-1.00;1.00
6496;DHT22;3281;47.658;9.166;2023-02-11T07:34:32;-0.80;1.00
6496;DHT22;3281;47.658;9.166;2023-02-11T07:36:58;-0.70;1.00
6496;DHT22;3281;47.658;9.166;2023-02-11T07:39:25;-0.90;1.00
6496;DHT22;3281;47.658;9.166;2023-02-11T07:41:52;-0.70;1.00
6496;DHT22;3281;47.658;9.166;2023-02-11T07:44:19;-0.50;1.00
6496;DHT22;3281;47.658;9.166;2023-02-11T07:46:46;-0.50;1.00
6496;DHT22;3281;47.658;9.166;2023-02-11T07:49:15;-0.30;1.00
6496;DHT22;3281;47.658;9.166;2023-02-11T07:51:42;-0.20;1.00
6496;DHT22;3281;47.658;9.166;2023-02-11T07:54:10;-0.10;1.00
6496;DHT22;3281;47.658;9.166;2023-02-11T07:56:36;-0.30;1.00
6496;DHT22;3281;47.658;9.166;2023-02-11T07:59:03;-0.20;1.00
6496;DHT22;3281;47.658;9.166;2023-02-11T08:01:30;-0.10;1.00
6496;DHT22;3281;47.658;9.166;2023-02-11T08:03:58;-0.10;1.00
6496;DHT22;3281;47.658;9.166;2023-02-11T08:06:29;0.10;1.00
6496;DHT22;3281;47.658;9.166;2023-02-11T08:08:56;0.30;1.00
6496;DHT22;3281;47.658;9.166;2023-02-11T08:11:25;0.30;1.00
6496;DHT22;3281;47.658;9.166;2023-02-11T08:13:52;0.30;1.00
6496;DHT22;3281;47.658;9.166;2023-02-11T08:16:21;0.60;1.00
6496;DHT22;3281;47.658;9.166;2023-02-11T08:18:49;0.50;1.00
6496;DHT22;3281;47.658;9.166;2023-02-11T08:21:17;0.50;1.00
6496;DHT22;3281;47.658;9.166;2023-02-11T08:23:45;0.50;1.00
6496;DHT22;3281;47.658;9.166;2023-02-11T08:26:14;0.40;1.00
6496;DHT22;3281;47.658;9.166;2023-02-11T08:28:42;0.50;1.00
6496;DHT22;3281;47.658;9.166;2023-02-11T08:31:11;0.50;1.00
6496;DHT22;3281;47.658;9.166;2023-02-11T08:33:38;0.70;1.00
6496;DHT22;3281;47.658;9.166;2023-02-11T08:36:07;0.90;1.00
6496;DHT22;3281;47.658;9.166;2023-02-11T08:38:34;1.00;1.00
6496;DHT22;3281;47.658;9.166;2023-02-11T08:41:03;1.00;1.00
6496;DHT22;3281;47.658;9.166;2023-02-11T08:43:29;1.20;1.00
6496;DHT22;3281;47.658;9.166;2023-02-11T08:45:57;1.20;1.00
6496;DHT22;3281;47.658;9.166;2023-02-11T08:48:24;1.30;1.00
6496;DHT22;3281;47.658;9.166;2023-02-11T08:50:52;1.40;1.00
6496;DHT22;3281;47.658;9.166;2023-02-11T08:53:19;1.30;1.00
6496;DHT22;3281;47.658;9.166;2023-02-11T08:55:49;1.40;1.00
6496;DHT22;3281;47.658;9.166;2023-02-11T08:58:17;1.50;1.00
6496;DHT22;3281;47.658;9.166;2023-02-11T09:00:44;1.70;1.00
6496;DHT22;3281;47.658;9.166;2023-02-11T09:03:11;1.70;1.00
6496;DHT22;3281;47.658;9.166;2023-02-11T09:05:40;1.70;1.00
6496;DHT22;3281;47.658;9.166;2023-02-11T09:08:07;1.60;1.00
6496;DHT22;3281;47.658;9.166;2023-02-11T09:10:34;1.70;1.00
6496;DHT22;3281;47.658;9.166;2023-02-11T09:13:00;1.90;1.00
6496;DHT22;3281;47.658;9.166;2023-02-11T09:15:29;2.00;1.00
6496;DHT22;3281;47.658;9.166;2023-02-11T09:17:56;2.20;1.00
6496;DHT22;3281;47.658;9.166;2023-02-11T09:20:23;2.50;1.00
6496;DHT22;3281;47.658;9.166;2023-02-11T09:22:51;2.40;1.00
6496;DHT22;3281;47.658;9.166;2023-02-11T09:25:17;2.80;1.00
6496;DHT22;3281;47.658;9.166;2023-02-11T09:27:44;2.70;1.00
6496;DHT22;3281;47.658;9.166;2023-02-11T09:30:11;2.60;1.00
6496;DHT22;3281;47.658;9.166;2023-02-11T09:32:40;2.40;1.00
6496;DHT22;3281;47.658;9.166;2023-02-11T09:35:07;2.40;1.00
6496;DHT22;3281;47.658;9.166;2023-02-11T09:37:33;2.30;1.00
6496;DHT22;3281;47.658;9.166;2023-02-11T09:40:00;2.40;1.00
6496;DHT22;3281;47.658;9.166;2023-02-11T09:42:39;2.50;1.00
6496;DHT22;3281;47.658;9.166;2023-02-11T09:45:12;2.50;1.00
6496;DHT22;3281;47.658;9.166;2023-02-11T09:47:47;2.40;1.00
6496;DHT22;3281;47.658;9.166;2023-02-11T09:50:18;2.70;1.00
6496;DHT22;3281;47.658;9.166;2023-02-11T09:52:51;2.80;1.00
6496;DHT22;3281;47.658;9.166;2023-02-11T09:55:22;3.00;1.00
6496;DHT22;3281;47.658;9.166;2023-02-11T09:57:50;3.20;1.00
6496;DHT22;3281;47.658;9.166;2023-02-11T10:00:19;3.20;1.00
6496;DHT22;3281;47.658;9.166;2023-02-11T10:02:57;3.30;1.00
6496;DHT22;3281;47.658;9.166;2023-02-11T10:05:37;3.40;1.00
6496;DHT22;3281;47.658;9.166;2023-02-11T10:08:11;3.40;1.00
6496;DHT22;3281;47.658;9.166;2023-02-11T10:10:46;3.50;1.00
6496;DHT22;3281;47.658;9.166;2023-02-11T10:13:32;3.60;1.00
6496;DHT22;3281;47.658;9.166;2023-02-11T10:16:08;4.00;1.00
6496;DHT22;3281;47.658;9.166;2023-02-11T10:18:53;3.90;1.00
6496;DHT22;3281;47.658;9.166;2023-02-11T10:21:30;4.00;1.00
6496;DHT22;3281;47.658;9.166;2023-02-11T10:23:59;4.10;1.00
6496;DHT22;3281;47.658;9.166;2023-02-11T10:26:29;4.10;1.00
6496;DHT22;3281;47.658;9.166;2023-02-11T10:29:00;3.80;1.00
6496;DHT22;3281;47.658;9.166;2023-02-11T10:31:34;3.90;1.00
6496;DHT22;3281;47.658;9.166;2023-02-11T10:34:05;3.80;1.00
6496;DHT22;3281;47.658;9.166;2023-02-11T10:36:36;3.90;1.00
6496;DHT22;3281;47.658;9.166;2023-02-11T10:39:10;4.10;1.00
6496;DHT22;3281;47.658;9.166;2023-02-11T10:41:39;4.20;1.00
6496;DHT22;3281;47.658;9.166;2023-02-11T10:44:07;4.10;1.00
6496;DHT22;3281;47.658;9.166;2023-02-11T10:46:36;4.30;1.00
6496;DHT22;3281;47.658;9.166;2023-02-11T10:49:05;4.10;1.00
6496;DHT22;3281;47.658;9.166;2023-02-11T10:51:32;4.10;1.00
6496;DHT22;3281;47.658;9.166;2023-02-11T10:54:11;4.20;1.00
6496;DHT22;3281;47.658;9.166;2023-02-11T10:56:45;4.00;1.00
6496;DHT22;3281;47.658;9.166;2023-02-11T10:59:18;4.30;1.00
6496;DHT22;3281;47.658;9.166;2023-02-11T11:01:49;4.70;1.00
6496;DHT22;3281;47.658;9.166;2023-02-11T11:04:33;5.10;1.00
6496;DHT22;3281;47.658;9.166;2023-02-11T11:07:11;5.10;1.00
6496;DHT22;3281;47.658;9.166;2023-02-11T11:09:46;6.30;1.00
6496;DHT22;3281;47.658;9.166;2023-02-11T11:12:24;6.80;1.00
6496;DHT22;3281;47.658;9.166;2023-02-11T11:14:53;6.90;1.00
6496;DHT22;3281;47.658;9.166;2023-02-11T11:17:20;6.50;1.00
6496;DHT22;3281;47.658;9.166;2023-02-11T11:19:48;6.10;1.00
6496;DHT22;3281;47.658;9.166;2023-02-11T11:22:20;6.10;1.00
6496;DHT22;3281;47.658;9.166;2023-02-11T11:24:47;5.90;1.00
6496;DHT22;3281;47.658;9.166;2023-02-11T11:27:20;5.90;1.00
6496;DHT22;3281;47.658;9.166;2023-02-11T11:29:50;6.30;1.00
6496;DHT22;3281;47.658;9.166;2023-02-11T11:32:20;6.70;1.00
6496;DHT22;3281;47.658;9.166;2023-02-11T11:34:50;7.20;1.00
6496;DHT22;3281;47.658;9.166;2023-02-11T11:37:23;7.60;1.00
6496;DHT22;3281;47.658;9.166;2023-02-11T11:39:56;8.30;1.00
6496;DHT22;3281;47.658;9.166;2023-02-11T11:42:26;7.70;1.00
6496;DHT22;3281;47.658;9.166;2023-02-11T11:44:57;7.70;1.00
6496;DHT22;3281;47.658;9.166;2023-02-11T11:47:31;7.20;1.00
6496;DHT22;3281;47.658;9.166;2023-02-11T11:50:28;6.80;1.00
6496;DHT22;3281;47.658;9.166;2023-02-11T11:53:00;6.70;1.00
6496;DHT22;3281;47.658;9.166;2023-02-11T11:55:33;6.70;1.00
6496;DHT22;3281;47.658;9.166;2023-02-11T11:58:01;7.20;1.00
6496;DHT22;3281;47.658;9.166;2023-02-11T12:00:34;7.50;1.00
6496;DHT22;3281;47.658;9.166;2023-02-11T12:03:31;7.80;1.00
6496;DHT22;3281;47.658;9.166;2023-02-11T12:06:20;8.60;1.00
6496;DHT22;3281;47.658;9.166;2023-02-11T12:08:57;9.30;1.00
6496;DHT22;3281;47.658;9.166;2023-02-11T12:11:34;9.70;1.00
6496;DHT22;3281;47.658;9.166;2023-02-11T12:14:11;10.80;1.00
6496;DHT22;3281;47.658;9.166;2023-02-11T12:16:50;10.80;1.00
6496;DHT22;3281;47.658;9.166;2023-02-11T12:19:46;11.20;1.00
6496;DHT22;3281;47.658;9.166;2023-02-11T12:22:25;11.50;1.00
6496;DHT22;3281;47.658;9.166;2023-02-11T12:25:02;11.80;1.00
6496;DHT22;3281;47.658;9.166;2023-02-11T12:27:43;11.90;1.00
6496;DHT22;3281;47.658;9.166;2023-02-11T12:30:21;10.40;1.00
6496;DHT22;3281;47.658;9.166;2023-02-11T12:32:59;9.60;1.00
6496;DHT22;3281;47.658;9.166;2023-02-11T12:35:31;9.20;1.00
6496;DHT22;3281;47.658;9.166;2023-02-11T12:38:15;9.10;1.00
6496;DHT22;3281;47.658;9.166;2023-02-11T12:40:53;9.30;1.00
6496;DHT22;3281;47.658;9.166;2023-02-11T12:43:24;8.80;1.00
6496;DHT22;3281;47.658;9.166;2023-02-11T12:49:21;8.20;1.00
6496;DHT22;3281;47.658;9.166;2023-02-11T12:52:01;8.70;1.00
6496;DHT22;3281;47.658;9.166;2023-02-11T12:54:35;9.50;1.00
6496;DHT22;3281;47.658;9.166;2023-02-11T12:57:07;10.10;1.00
6496;DHT22;3281;47.658;9.166;2023-02-11T12:59:48;10.20;1.00
6496;DHT22;3281;47.658;9.166;2023-02-11T13:02:23;10.40;1.00
6496;DHT22;3281;47.658;9.166;2023-02-11T13:04:54;10.80;1.00
6496;DHT22;3281;47.658;9.166;2023-02-11T13:07:27;10.60;1.00
6496;DHT22;3281;47.658;9.166;2023-02-11T13:10:00;11.10;1.00
6496;DHT22;3281;47.658;9.166;2023-02-11T13:12:33;10.50;1.00
6496;DHT22;3281;47.658;9.166;2023-02-11T13:15:19;11.20;1.00
6496;DHT22;3281;47.658;9.166;2023-02-11T13:17:53;12.60;1.00
6496;DHT22;3281;47.658;9.166;2023-02-11T13:20:32;13.40;1.00
6496;DHT22;3281;47.658;9.166;2023-02-11T13:23:06;13.50;1.00
6496;DHT22;3281;47.658;9.166;2023-02-11T13:25:41;14.00;1.00
6496;DHT22;3281;47.658;9.166;2023-02-11T13:28:21;14.70;1.00
6496;DHT22;3281;47.658;9.166;2023-02-11T13:30:48;13.80;1.00
6496;DHT22;3281;47.658;9.166;2023-02-11T13:33:34;13.20;1.00
6496;DHT22;3281;47.658;9.166;2023-02-11T13:36:13;12.40;1.00
6496;DHT22;3281;47.658;9.166;2023-02-11T13:38:51;12.00;1.00
6496;DHT22;3281;47.658;9.166;2023-02-11T13:41:23;11.40;1.00
6496;DHT22;3281;47.658;9.166;2023-02-11T13:44:00;11.30;1.00
6496;DHT22;3281;47.658;9.166;2023-02-11T13:46:29;11.20;1.00
6496;DHT22;3281;47.658;9.166;2023-02-11T13:49:18;11.80;1.00
6496;DHT22;3281;47.658;9.166;2023-02-11T13:51:46;12.30;1.00
6496;DHT22;3281;47.658;9.166;2023-02-11T13:54:22;13.40;1.00
6496;DHT22;3281;47.658;9.166;2023-02-11T13:59:53;13.10;1.00
6496;DHT22;3281;47.658;9.166;2023-02-11T14:02:23;12.50;1.00
6496;DHT22;3281;47.658;9.166;2023-02-11T14:05:24;12.90;1.00
6496;DHT22;3281;47.658;9.166;2023-02-11T14:08:22;13.70;1.00
6496;DHT22;3281;47.658;9.166;2023-02-11T14:11:09;12.90;1.00
6496;DHT22;3281;47.658;9.166;2023-02-11T14:14:19;12.60;1.00
6496;DHT22;3281;47.658;9.166;2023-02-11T14:17:29;12.30;1.00
6496;DHT22;3281;47.658;9.166;2023-02-11T14:19:57;11.80;1.00
6496;DHT22;3281;47.658;9.166;2023-02-11T14:22:29;11.80;1.00
6496;DHT22;3281;47.658;9.166;2023-02-11T14:24:59;11.60;1.00
6496;DHT22;3281;47.658;9.166;2023-02-11T14:27:36;11.20;1.00
6496;DHT22;3281;47.658;9.166;2023-02-11T14:30:12;11.20;1.00
6496;DHT22;3281;47.658;9.166;2023-02-11T14:33:08;11.00;1.00
6496;DHT22;3281;47.658;9.166;2023-02-11T14:35:46;10.40;1.00
6496;DHT22;3281;47.658;9.166;2023-02-11T14:38:21;10.40;1.00
6496;DHT22;3281;47.658;9.166;2023-02-11T14:40:54;10.20;1.00
6496;DHT22;3281;47.658;9.166;2023-02-11T14:43:25;9.90;1.00
6496;DHT22;3281;47.658;9.166;2023-02-11T14:45:55;9.70;1.00
6496;DHT22;3281;47.658;9.166;2023-02-11T14:48:27;9.50;1.00
6496;DHT22;3281;47.658;9.166;2023-02-11T14:50:59;9.40;1.00
6496;DHT22;3281;47.658;9.166;2023-02-11T14:53:28;9.00;1.00
6496;DHT22;3281;47.658;9.166;2023-02-11T14:55:56;8.90;1.00
6496;DHT22;3281;47.658;9.166;2023-02-11T14:58:24;8.60;1.00
6496;DHT22;3281;47.658;9.166;2023-02-11T15:00:56;8.50;1.00
6496;DHT22;3281;47.658;9.166;2023-02-11T15:03:31;8.50;1.00
6496;DHT22;3281;47.658;9.166;2023-02-11T15:05:59;8.60;1.00
6496;DHT22;3281;47.658;9.166;2023-02-11T15:08:27;8.30;1.00
6496;DHT22;3281;47.658;9.166;2023-02-11T15:10:57;8.20;1.00
6496;DHT22;3281;47.658;9.166;2023-02-11T15:13:25;8.30;1.00
6496;DHT22;3281;47.658;9.166;2023-02-11T15:15:59;8.10;1.00
6496;DHT22;3281;47.658;9.166;2023-02-11T15:18:33;8.00;1.00
6496;DHT22;3281;47.658;9.166;2023-02-11T15:21:01;7.90;1.00
6496;DHT22;3281;47.658;9.166;2023-02-11T15:23:29;7.80;1.00
6496;DHT22;3281;47.658;9.166;2023-02-11T15:25:56;7.80;1.00
6496;DHT22;3281;47.658;9.166;2023-02-11T15:28:29;7.80;1.00
6496;DHT22;3281;47.658;9.166;2023-02-11T15:30:58;7.80;1.00
6496;DHT22;3281;47.658;9.166;2023-02-11T15:33:25;7.60;1.00
6496;DHT22;3281;47.658;9.166;2023-02-11T15:35:56;7.60;1.00
6496;DHT22;3281;47.658;9.166;2023-02-11T15:38:23;7.50;1.00
6496;DHT22;3281;47.658;9.166;2023-02-11T15:40:55;7.50;1.00
6496;DHT22;3281;47.658;9.166;2023-02-11T15:43:23;7.40;1.00
6496;DHT22;3281;47.658;9.166;2023-02-11T15:45:57;7.30;1.00
6496;DHT22;3281;47.658;9.166;2023-02-11T15:48:33;7.20;1.00
6496;DHT22;3281;47.658;9.166;2023-02-11T15:51:05;7.10;1.00
6496;DHT22;3281;47.658;9.166;2023-02-11T15:53:36;7.00;1.00
6496;DHT22;3281;47.658;9.166;2023-02-11T15:56:09;6.80;1.00
6496;DHT22;3281;47.658;9.166;2023-02-11T15:58:38;6.80;1.00
6496;DHT22;3281;47.658;9.166;2023-02-11T16:01:06;6.70;1.00
6496;DHT22;3281;47.658;9.166;2023-02-11T16:03:34;6.60;1.00
6496;DHT22;3281;47.658;9.166;2023-02-11T16:06:20;6.50;1.00
6496;DHT22;3281;47.658;9.166;2023-02-11T16:09:01;6.50;1.00
6496;DHT22;3281;47.658;9.166;2023-02-11T16:11:29;6.40;1.00
6496;DHT22;3281;47.658;9.166;2023-02-11T16:13:57;6.40;1.00
6496;DHT22;3281;47.658;9.166;2023-02-11T16:16:29;6.50;1.00
6496;DHT22;3281;47.658;9.166;2023-02-11T16:18:58;6.50;1.00
6496;DHT22;3281;47.658;9.166;2023-02-11T16:21:29;6.60;1.00
6496;DHT22;3281;47.658;9.166;2023-02-11T16:23:58;6.70;1.00
6496;DHT22;3281;47.658;9.166;2023-02-11T16:26:29;6.60;1.00
6496;DHT22;3281;47.658;9.166;2023-02-11T16:29:15;6.50;1.00
6496;DHT22;3281;47.658;9.166;2023-02-11T16:31:44;6.30;1.00
6496;DHT22;3281;47.658;9.166;2023-02-11T16:34:16;6.20;1.00
6496;DHT22;3281;47.658;9.166;2023-02-11T16:36:45;6.00;1.00
6496;DHT22;3281;47.658;9.166;2023-02-11T16:39:12;6.00;1.00
6496;DHT22;3281;47.658;9.166;2023-02-11T16:41:39;5.80;1.00
6496;DHT22;3281;47.658;9.166;2023-02-11T16:44:05;5.80;1.00
6496;DHT22;3281;47.658;9.166;2023-02-11T16:46:32;5.80;1.00
6496;DHT22;3281;47.658;9.166;2023-02-11T16:49:09;5.70;1.00
6496;DHT22;3281;47.658;9.166;2023-02-11T16:51:38;5.70;1.00
6496;DHT22;3281;47.658;9.166;2023-02-11T16:54:08;5.70;1.00
6496;DHT22;3281;47.658;9.166;2023-02-11T16:56:36;5.70;1.00
6496;DHT22;3281;47.658;9.166;2023-02-11T16:59:03;5.70;1.00
6496;DHT22;3281;47.658;9.166;2023-02-11T17:01:31;5.60;1.00
6496;DHT22;3281;47.658;9.166;2023-02-11T17:03:58;5.70;1.00